Time Latitude Longitude Accuracy (66% radius in meters) Altitude (meters) Speed (km/hour) Bearing (degrees) Battery (%) GPS flag
10:00:46 60.370989 29.556332 8 72 0 345.41262817383 76 1 delete
10:00:36 60.370978 29.556342 6 72 0.49136784672737 16.058839797974 76 1 delete
10:00:34 60.370961 29.556330 24 73 0.37115317583084 7.6943817138672 76 1 delete
10:00:22 60.370953 29.556328 6 72 0 133.9029083252 76 1 delete
10:00:08 60.370948 29.556270 16 73 0.31575554609299 264.39181518555 76 1 delete
09:59:55 60.370937 29.556281 6 71 0 214.80229187012 80 1 delete
09:59:43 60.370925 29.556294 6 70 0 214.80229187012 80 1 delete
09:59:31 60.370917 29.556327 8 74 0 214.80229187012 80 1 delete
09:59:18 60.370948 29.556344 6 75 0 214.80229187012 80 1 delete
09:59:05 60.370942 29.556283 8 71 0 178.10261535645 80 1 delete
09:58:52 60.370985 29.556400 6 70 0 178.10261535645 80 1 delete
09:58:40 60.370951 29.556384 6 68 0 178.10261535645 80 1 delete
09:58:27 60.370931 29.556323 8 72 0 178.10261535645 80 1 delete
09:58:15 60.370946 29.556350 6 66 0 178.10261535645 80 1 delete
09:58:01 60.370965 29.556327 8 64 0 178.10261535645 80 1 delete
09:57:50 60.370957 29.556374 6 71 0 178.10261535645 80 1 delete
09:57:49 60.370954 29.556378 4 72 0 178.10261535645 80 1 delete
09:57:36 60.370928 29.556395 6 70 0 178.10261535645 80 1 delete
09:57:24 60.370901 29.556391 8 79 0 178.10261535645 80 1 delete
09:57:11 60.370901 29.556382 6 64 0.30454725027084 178.10261535645 80 1 delete
09:57:10 60.370910 29.556390 8 64 0 316.16983032227 80 1 delete
09:56:59 60.370951 29.556418 6 70 0 316.16983032227 80 1 delete
09:56:56 60.370953 29.556424 8 67 0 316.16983032227 80 1 delete
09:56:46 60.370960 29.556410 6 72 0 316.16983032227 80 1 delete
09:56:33 60.370992 29.556420 12 75 0 316.16983032227 80 1 delete
09:56:20 60.370996 29.556482 4 82 0 138.6277923584 80 1 delete
09:56:18 60.370993 29.556466 4 80 0 138.6277923584 80 1 delete
09:56:07 60.370964 29.556437 8 73 0 138.6277923584 80 1 delete
09:55:54 60.370982 29.556401 8 78 0 138.6277923584 80 1 delete
09:55:43 60.370962 29.556397 6 63 0 138.6277923584 80 1 delete
09:55:42 60.370964 29.556390 6 65 0 138.6277923584 80 1 delete
09:55:29 60.370979 29.556424 6 77 0 138.6277923584 80 1 delete
09:55:16 60.370976 29.556410 6 77 0 286.76245117188 80 1 delete
09:55:01 60.371005 29.556431 6 82 0 286.76245117188 80 1 delete
09:54:54 60.371007 29.556394 8 83 0 286.76245117188 80 1 delete
09:54:49 60.371002 29.556347 6 79 0 286.76245117188 80 1 delete
09:54:37 60.370979 29.556322 6 71 0 286.76245117188 80 1 delete
09:54:36 60.370972 29.556336 6 72 0 286.76245117188 80 1 delete
09:54:30 60.370965 29.556424 6 81 0 286.76245117188 80 1 delete
09:54:24 60.370997 29.556466 6 83 0 286.76245117188 80 1 delete
09:54:11 60.371015 29.556501 6 83 0 286.76245117188 80 1 delete
09:53:58 60.370997 29.556445 8 75 0 286.76245117188 80 1 delete
09:53:45 60.371000 29.556471 6 73 0 286.76245117188 80 1 delete
09:53:41 60.370999 29.556484 6 74 0 286.76245117188 80 1 delete
09:53:34 60.370975 29.556404 8 75 0 286.76245117188 80 1 delete
09:53:32 60.370961 29.556401 6 79 0 286.76245117188 80 1 delete
09:53:20 60.370936 29.556426 6 79 0.34752735495567 268.73724365234 80 1 delete
09:53:19 60.370929 29.556436 6 80 0 305.8268737793 80 1 delete
09:53:06 60.370913 29.556473 8 81 0 220.66003417969 80 1 delete
09:52:53 60.370936 29.556506 8 79 0 344.22024536133 80 1 delete